Casper, WY (82601)

7:56 AM MDT on August 30, 2015 (GMT -0600)
Casper Mountain Foothills | | Change Station
CLOSE
Current Station
Personal Weather Station
Location: Casper, WY
Elevation: 5334 ft
Nearby Weather Stations
Active Advisory: Fire Weather Warning

Elev 5334 ft 42.83 °N, 106.31 °W | Updated 1 minute ago

Clear
Clear
79.6 °F
Feels Like 78 °F
N
0.0
Wind Variable Wind from WSW
Gusts 4.0 mph

Today
High -- | Low -- °F
--% Chance of Precip.
Yesterday
High -- | Low -- °F
Precip. -- in
6:27 AM 7:43 PM
Full, 99% visible
Pressure 29.78 in
Visibility 10.0 miles
Clouds Clear
Heat Index 78 °F
Dew Point 31 °F
Humidity 17%
Rainfall 0.00 in
Snow Depth Not available.
UV 1 out of 12
Pollen 10.40 out of 12
Air Quality Not available.
Flu Activity Not available.
METAR KCPR 301353Z 21015G23KT 10SM CLR 24/M01 A3001 RMK AO2 SLP083 T02441011
Pressure 29.78 in
Visibility 10.0 miles
Clouds Clear
Heat Index 78 °F
Dew Point 31 °F
Humidity 17%
Rainfall 0.00 in
Snow Depth Not available.
UV 1 out of 12
Pollen 10.40 out of 12
Air Quality Not available.
Flu Activity Not available.
METAR KCPR 301353Z 21015G23KT 10SM CLR 24/M01 A3001 RMK AO2 SLP083 T02441011

10-Day Weather Forecast

×

Almanac

Astronomy

Aug. 30, 2015 Rise Set
Actual Time
Civil Twilight
Nautical Twilight
Astronomical Twilight
Moon
Length of Visible Light
Length of Day
Tomorrow will be .
, % of the Moon is Illuminated

Today's Extremes

State Highs State Lows

Community

WunderPhotos

Upload Photos

1,850,954 photos uploaded!

WunderBlogs® & News

Nearby

Air Quality

  Air Quality AQ Index Pollutant
Not available.

Snow Depth

Station Depth Elevation

Earthquake Activity

City Distance Mag. Time & Date
Minimum magnitude displayed is 2.5.

Coastal Water Temperatures

Place Temperature

Stations

Nearby Weather Stations

Station Location Temp. Windchill Dew Point Humidity Wind Precip. Elev Updated Type
                   
Fire Weather Warning
Statement as of 3:10 AM MDT on August 30, 2015

... Red flag warning remains in effect until 9 PM MDT this evening
for gusty wind... low humidity... hot temperatures... and a Haines
index of 6...

* wind... southwest increasing to 15 to 25 mph with gusts around 35
mph by 1800 this afternoon.

* Maximum temperatures... 88 to 93.

* Humidity... relative humidity will return to the mid teens
around noon on Sunday.

* Haines index... 6

* thunderstorms... isolated to widely scattered dry thunderstorms
today.

* Impacts... any fires that develop will likely spread rapidly.
Outdoor burning is not recommended and campfires need to be
out cold.

Precautionary/preparedness actions...

A red flag warning means that critical fire weather conditions
are either occurring now... or will shortly. A combination of
strong winds... low relative humidity... and warm temperatures will
create extreme fire behavior.